createdAt,value
2022-10-18T00:04:46.485Z,0
2022-10-18T00:09:46.538Z,0
2022-10-18T00:14:46.519Z,0
2022-10-18T00:25:12.985Z,0
2022-10-18T00:29:46.881Z,0
2022-10-18T00:34:46.883Z,0
2022-10-18T00:39:46.795Z,0
2022-10-18T00:44:46.728Z,0
2022-10-18T00:49:46.519Z,0
2022-10-18T00:54:46.598Z,0
2022-10-18T00:59:46.644Z,0
2022-10-18T01:04:46.534Z,0
2022-10-18T01:09:46.538Z,0
2022-10-18T01:14:46.529Z,0
2022-10-18T01:19:49.171Z,0
2022-10-18T01:24:46.580Z,0
2022-10-18T01:29:46.553Z,0
2022-10-18T01:34:46.522Z,0
2022-10-18T01:39:46.560Z,0
2022-10-18T01:44:46.556Z,0
2022-10-18T01:49:46.553Z,0
2022-10-18T01:54:46.522Z,0
2022-10-18T01:59:46.543Z,0
2022-10-18T02:04:46.567Z,0
2022-10-18T02:09:46.544Z,0
2022-10-18T02:14:46.536Z,0
2022-10-18T02:19:46.511Z,0
2022-10-18T02:24:46.564Z,0
2022-10-18T02:29:46.583Z,0
2022-10-18T02:34:46.537Z,0
2022-10-18T02:39:46.543Z,0
2022-10-18T02:44:46.557Z,0
2022-10-18T02:49:46.532Z,0
2022-10-18T02:54:46.648Z,0
2022-10-18T02:59:46.579Z,0
2022-10-18T03:04:46.537Z,0
2022-10-18T03:09:46.543Z,0
2022-10-18T03:14:46.545Z,0
2022-10-18T03:19:46.515Z,0
2022-10-18T03:24:46.530Z,0
2022-10-18T03:29:46.524Z,0
2022-10-18T03:34:46.551Z,0
2022-10-18T03:39:46.542Z,0
2022-10-18T03:44:46.659Z,0
2022-10-18T03:49:46.540Z,0
2022-10-18T03:54:46.532Z,0
2022-10-18T03:59:46.554Z,0
2022-10-18T04:04:57.153Z,0
2022-10-18T04:09:46.564Z,0
2022-10-18T04:14:46.568Z,0
2022-10-18T04:19:46.549Z,0
2022-10-18T04:24:46.546Z,0
2022-10-18T04:29:46.543Z,0
2022-10-18T04:34:46.587Z,0
2022-10-18T04:39:48.562Z,0
2022-10-18T04:44:46.560Z,0
2022-10-18T04:49:46.552Z,0
2022-10-18T04:54:46.526Z,0
2022-10-18T04:59:46.644Z,0
2022-10-18T05:04:46.639Z,0
2022-10-18T05:09:46.544Z,0
2022-10-18T05:14:46.572Z,0
2022-10-18T05:19:46.536Z,0
2022-10-18T05:24:49.157Z,511
2022-10-18T05:29:46.572Z,257
2022-10-18T05:34:46.638Z,265
2022-10-18T05:39:46.828Z,264
2022-10-18T05:44:46.605Z,270
2022-10-18T05:49:46.624Z,273
2022-10-18T05:54:46.861Z,272
2022-10-18T05:59:46.547Z,272
2022-10-18T06:04:46.594Z,271
2022-10-18T06:09:46.569Z,276
2022-10-18T06:14:46.662Z,300
2022-10-18T06:19:46.670Z,332
2022-10-18T06:24:46.602Z,347
2022-10-18T06:29:46.602Z,301
2022-10-18T06:34:46.587Z,311
2022-10-18T06:44:46.715Z,330
2022-10-18T06:57:17.323Z,368
2022-10-18T06:59:46.673Z,375
2022-10-18T07:04:46.880Z,418
2022-10-18T07:09:46.619Z,452
2022-10-18T07:14:46.854Z,489
2022-10-18T07:19:46.596Z,515
2022-10-18T07:24:46.600Z,605
2022-10-18T07:29:46.590Z,549
2022-10-18T07:34:46.601Z,604
2022-10-18T07:39:46.622Z,610
2022-10-18T07:44:46.605Z,740
2022-10-18T07:49:46.607Z,812
2022-10-18T07:54:46.639Z,1168
2022-10-18T07:59:46.713Z,1468
2022-10-18T08:04:46.593Z,1724
2022-10-18T08:09:46.727Z,2386
2022-10-18T08:14:46.612Z,5230
2022-10-18T08:19:52.647Z,12253
2022-10-18T08:24:46.736Z,12812
2022-10-18T08:29:46.700Z,12627
2022-10-18T08:34:46.663Z,12491
2022-10-18T08:39:46.608Z,13086
2022-10-18T08:44:46.694Z,13723
2022-10-18T08:49:47.221Z,13684
2022-10-18T08:54:46.698Z,13603
2022-10-18T08:59:46.618Z,12758
2022-10-18T09:04:46.684Z,13543
2022-10-18T09:09:46.631Z,13107
2022-10-18T09:14:46.719Z,13661
2022-10-18T09:19:46.732Z,14242
2022-10-18T09:24:46.607Z,14925
2022-10-18T09:29:46.590Z,12308
2022-10-18T09:34:46.624Z,12958
2022-10-18T09:39:46.645Z,12839
2022-10-18T09:44:46.622Z,14624
2022-10-18T09:49:46.714Z,11460
2022-10-18T09:54:46.605Z,2496
2022-10-18T09:59:46.605Z,1518
2022-10-18T10:04:46.601Z,2090
2022-10-18T10:09:46.608Z,1353
2022-10-18T10:14:46.647Z,1472
2022-10-18T10:19:46.683Z,1478
2022-10-18T10:24:46.644Z,1720
2022-10-18T10:29:46.821Z,1353
2022-10-18T10:34:46.641Z,1154
2022-10-18T10:39:55.419Z,1454
2022-10-18T10:44:46.724Z,1535
2022-10-18T10:49:46.627Z,924
2022-10-18T10:54:50.500Z,639
2022-10-18T10:59:46.622Z,524
2022-10-18T11:04:46.779Z,504
2022-10-18T11:09:46.618Z,457
2022-10-18T11:14:46.637Z,456
2022-10-18T11:19:46.699Z,532
2022-10-18T11:24:46.668Z,543
2022-10-18T11:29:46.642Z,742
2022-10-18T11:34:46.633Z,961
2022-10-18T11:39:46.865Z,702
2022-10-18T11:44:46.664Z,521
2022-10-18T11:49:46.602Z,465
2022-10-18T11:54:46.741Z,396
2022-10-18T11:59:46.806Z,404
2022-10-18T12:04:58.332Z,388
2022-10-18T12:14:48.028Z,398
2022-10-18T12:19:46.684Z,462
2022-10-18T12:24:46.645Z,415
2022-10-18T12:29:48.050Z,448
2022-10-18T12:34:46.655Z,647
2022-10-18T12:40:05.349Z,1077
2022-10-18T12:44:46.718Z,925
2022-10-18T12:49:46.682Z,645
2022-10-18T12:54:46.706Z,843
2022-10-18T12:59:46.680Z,798
2022-10-18T13:04:46.723Z,780
2022-10-18T13:09:46.743Z,549
2022-10-18T13:14:53.624Z,478
2022-10-18T13:19:49.020Z,406
2022-10-18T13:24:46.684Z,594
2022-10-18T13:29:46.726Z,600
2022-10-18T13:34:46.667Z,452
2022-10-18T13:39:46.681Z,451
2022-10-18T13:44:46.705Z,324
2022-10-18T13:49:46.655Z,436
2022-10-18T13:54:46.690Z,487
2022-10-18T13:59:46.685Z,389
2022-10-18T14:05:44.869Z,381
2022-10-18T14:09:48.763Z,433
2022-10-18T14:14:46.758Z,596
2022-10-18T14:19:46.727Z,473
2022-10-18T14:24:46.695Z,444
2022-10-18T14:29:46.800Z,406
2022-10-18T14:34:46.722Z,463
2022-10-18T14:39:46.713Z,459
2022-10-18T14:44:46.736Z,490
2022-10-18T14:49:46.698Z,450
2022-10-18T14:54:46.704Z,437
2022-10-18T14:59:51.574Z,410
2022-10-18T15:04:46.749Z,389
2022-10-18T15:09:46.717Z,412
2022-10-18T15:14:46.738Z,429
2022-10-18T15:19:46.682Z,416
2022-10-18T15:24:46.714Z,389
2022-10-18T15:29:46.737Z,339
2022-10-18T15:34:47.512Z,313
2022-10-18T15:44:47.527Z,284
2022-10-18T15:49:46.963Z,274
2022-10-18T15:59:47.261Z,267
2022-10-18T16:04:46.930Z,263
2022-10-18T16:09:48.371Z,260
2022-10-18T16:14:47.768Z,258
2022-10-18T16:19:47.681Z,257
2022-10-18T16:24:47.734Z,0
2022-10-18T16:29:48.465Z,0
2022-10-18T16:34:47.865Z,0
2022-10-18T16:39:47.777Z,0
2022-10-18T16:44:48.185Z,0
2022-10-18T16:49:48.759Z,0
2022-10-18T16:54:48.992Z,0
2022-10-18T16:59:47.751Z,0
2022-10-18T17:04:47.760Z,0
2022-10-18T17:09:47.743Z,0
2022-10-18T17:14:47.761Z,0
2022-10-18T17:19:47.784Z,0
2022-10-18T17:24:47.798Z,0
2022-10-18T17:29:47.859Z,0
2022-10-18T17:34:47.782Z,0
2022-10-18T17:39:47.766Z,0
2022-10-18T17:44:47.755Z,0
2022-10-18T17:49:47.760Z,0
2022-10-18T17:54:47.820Z,0
2022-10-18T17:59:47.789Z,0
2022-10-18T18:04:47.863Z,0
2022-10-18T18:09:47.790Z,0
2022-10-18T18:14:47.764Z,0
2022-10-18T18:24:47.836Z,0
2022-10-18T18:29:47.775Z,0
2022-10-18T18:34:47.855Z,0
2022-10-18T18:39:47.859Z,0
2022-10-18T18:44:47.838Z,0
2022-10-18T18:49:47.799Z,0
2022-10-18T18:54:47.749Z,0
2022-10-18T18:59:47.749Z,0
2022-10-18T19:04:47.771Z,0
2022-10-18T19:09:47.847Z,0
2022-10-18T19:14:47.751Z,0
2022-10-18T19:19:47.913Z,0
2022-10-18T19:24:47.817Z,0
2022-10-18T19:29:47.746Z,0
2022-10-18T19:34:47.755Z,0
2022-10-18T19:39:47.781Z,0
2022-10-18T19:44:47.744Z,0
2022-10-18T19:49:47.995Z,0
2022-10-18T19:54:47.760Z,0
2022-10-18T19:59:47.886Z,0
2022-10-18T20:04:47.905Z,0
2022-10-18T20:09:47.823Z,0
2022-10-18T20:14:47.855Z,0
2022-10-18T20:19:47.962Z,0
2022-10-18T20:24:47.797Z,0
2022-10-18T20:29:47.782Z,0
2022-10-18T20:34:47.796Z,0
2022-10-18T20:39:47.787Z,0
2022-10-18T20:44:47.869Z,0
2022-10-18T20:49:47.881Z,0
2022-10-18T20:54:47.740Z,0
2022-10-18T20:59:47.767Z,0
2022-10-18T21:04:47.792Z,0
2022-10-18T21:09:47.811Z,0
2022-10-18T21:14:47.813Z,256
2022-10-18T21:19:47.818Z,0
2022-10-18T21:24:47.787Z,0
2022-10-18T21:29:47.807Z,0
2022-10-18T21:34:47.785Z,0
2022-10-18T21:39:47.811Z,0
2022-10-18T21:44:47.805Z,0
2022-10-18T21:49:47.776Z,0
2022-10-18T21:54:47.767Z,0
2022-10-18T21:59:47.812Z,0
2022-10-18T22:04:47.802Z,0
2022-10-18T22:09:47.815Z,0
2022-10-18T22:14:47.880Z,0
2022-10-18T22:19:48.105Z,0
2022-10-18T22:24:47.807Z,0
2022-10-18T22:29:47.819Z,0
2022-10-18T22:34:47.802Z,0
2022-10-18T22:39:47.866Z,0
2022-10-18T22:44:47.796Z,0
2022-10-18T22:49:47.862Z,0
2022-10-18T22:54:47.788Z,0
2022-10-18T22:59:47.863Z,0
2022-10-18T23:04:47.857Z,0
2022-10-18T23:10:02.899Z,0
2022-10-18T23:14:47.813Z,0
2022-10-18T23:19:47.839Z,0
2022-10-18T23:24:47.845Z,0
2022-10-18T23:29:47.866Z,0
2022-10-18T23:34:47.817Z,0
2022-10-18T23:39:47.877Z,0
2022-10-18T23:44:47.934Z,0
2022-10-18T23:49:47.838Z,0
2022-10-18T23:54:47.831Z,0
2022-10-18T23:59:47.841Z,0
